sensor_id;sensor_type;location;lat;lon;timestamp;temperature;humidity
69324;DHT22;56470;47.350;8.718;2023-04-06T00:00:49;6.17;49.85
69324;DHT22;56470;47.350;8.718;2023-04-06T00:03:15;6.14;49.55
69324;DHT22;56470;47.350;8.718;2023-04-06T00:05:41;6.13;49.46
69324;DHT22;56470;47.350;8.718;2023-04-06T00:08:06;6.07;49.45
69324;DHT22;56470;47.350;8.718;2023-04-06T00:10:32;6.07;49.54
69324;DHT22;56470;47.350;8.718;2023-04-06T00:12:59;6.14;49.50
69324;DHT22;56470;47.350;8.718;2023-04-06T00:15:25;6.15;49.55
69324;DHT22;56470;47.350;8.718;2023-04-06T00:17:51;6.15;49.62
69324;DHT22;56470;47.350;8.718;2023-04-06T00:20:16;6.21;49.72
69324;DHT22;56470;47.350;8.718;2023-04-06T00:22:42;6.21;49.64
69324;DHT22;56470;47.350;8.718;2023-04-06T00:25:08;6.21;49.49
69324;DHT22;56470;47.350;8.718;2023-04-06T00:27:35;6.21;49.54
69324;DHT22;56470;47.350;8.718;2023-04-06T00:30:00;6.20;49.68
69324;DHT22;56470;47.350;8.718;2023-04-06T00:32:25;6.21;49.92
69324;DHT22;56470;47.350;8.718;2023-04-06T00:34:51;6.21;50.04
69324;DHT22;56470;47.350;8.718;2023-04-06T00:37:16;6.24;50.34
69324;DHT22;56470;47.350;8.718;2023-04-06T00:39:42;6.29;50.32
69324;DHT22;56470;47.350;8.718;2023-04-06T00:42:11;6.32;50.17
69324;DHT22;56470;47.350;8.718;2023-04-06T00:44:43;6.33;50.14
69324;DHT22;56470;47.350;8.718;2023-04-06T00:47:08;6.36;50.49
69324;DHT22;56470;47.350;8.718;2023-04-06T00:49:34;6.39;50.45
69324;DHT22;56470;47.350;8.718;2023-04-06T00:52:00;6.39;50.63
69324;DHT22;56470;47.350;8.718;2023-04-06T00:54:26;6.42;50.56
69324;DHT22;56470;47.350;8.718;2023-04-06T00:56:51;6.42;50.67
69324;DHT22;56470;47.350;8.718;2023-04-06T00:59:17;6.42;50.70
69324;DHT22;56470;47.350;8.718;2023-04-06T01:01:43;6.39;50.80
69324;DHT22;56470;47.350;8.718;2023-04-06T01:04:08;6.39;50.74
69324;DHT22;56470;47.350;8.718;2023-04-06T01:06:34;6.32;50.75
69324;DHT22;56470;47.350;8.718;2023-04-06T01:08:59;6.31;50.85
69324;DHT22;56470;47.350;8.718;2023-04-06T01:11:24;6.26;50.97
69324;DHT22;56470;47.350;8.718;2023-04-06T01:13:51;6.22;50.82
69324;DHT22;56470;47.350;8.718;2023-04-06T01:16:16;6.14;50.98
69324;DHT22;56470;47.350;8.718;2023-04-06T01:18:42;6.08;51.04
69324;DHT22;56470;47.350;8.718;2023-04-06T01:21:08;6.01;51.38
69324;DHT22;56470;47.350;8.718;2023-04-06T01:23:34;6.04;51.32
69324;DHT22;56470;47.350;8.718;2023-04-06T01:25:59;6.00;51.43
69324;DHT22;56470;47.350;8.718;2023-04-06T01:28:25;5.97;51.20
69324;DHT22;56470;47.350;8.718;2023-04-06T01:30:50;5.96;51.30
69324;DHT22;56470;47.350;8.718;2023-04-06T01:33:16;5.93;51.22
69324;DHT22;56470;47.350;8.718;2023-04-06T01:35:41;5.90;51.18
69324;DHT22;56470;47.350;8.718;2023-04-06T01:38:06;5.87;51.39
69324;DHT22;56470;47.350;8.718;2023-04-06T01:40:32;5.87;51.64
69324;DHT22;56470;47.350;8.718;2023-04-06T01:42:57;5.85;51.64
69324;DHT22;56470;47.350;8.718;2023-04-06T01:45:22;5.86;51.71
69324;DHT22;56470;47.350;8.718;2023-04-06T01:47:48;5.86;51.68
69324;DHT22;56470;47.350;8.718;2023-04-06T01:50:13;5.85;51.75
69324;DHT22;56470;47.350;8.718;2023-04-06T01:52:39;5.83;51.67
69324;DHT22;56470;47.350;8.718;2023-04-06T01:55:04;5.80;51.43
69324;DHT22;56470;47.350;8.718;2023-04-06T01:57:30;5.71;51.64
69324;DHT22;56470;47.350;8.718;2023-04-06T01:59:55;5.65;51.44
69324;DHT22;56470;47.350;8.718;2023-04-06T02:02:21;5.62;51.32
69324;DHT22;56470;47.350;8.718;2023-04-06T02:04:46;5.56;51.29
69324;DHT22;56470;47.350;8.718;2023-04-06T02:07:11;5.49;51.44
69324;DHT22;56470;47.350;8.718;2023-04-06T02:09:37;5.43;51.85
69324;DHT22;56470;47.350;8.718;2023-04-06T02:12:02;5.46;51.97
69324;DHT22;56470;47.350;8.718;2023-04-06T02:14:28;5.42;51.92
69324;DHT22;56470;47.350;8.718;2023-04-06T02:16:53;5.43;51.69
69324;DHT22;56470;47.350;8.718;2023-04-06T02:19:19;5.38;52.04
69324;DHT22;56470;47.350;8.718;2023-04-06T02:21:44;5.32;51.92
69324;DHT22;56470;47.350;8.718;2023-04-06T02:24:10;5.34;52.08
69324;DHT22;56470;47.350;8.718;2023-04-06T02:26:35;5.32;52.29
69324;DHT22;56470;47.350;8.718;2023-04-06T02:29:01;5.35;52.22
69324;DHT22;56470;47.350;8.718;2023-04-06T02:31:27;5.38;52.12
69324;DHT22;56470;47.350;8.718;2023-04-06T02:33:52;5.41;51.99
69324;DHT22;56470;47.350;8.718;2023-04-06T02:36:18;5.42;51.84
69324;DHT22;56470;47.350;8.718;2023-04-06T02:38:43;5.36;52.04
69324;DHT22;56470;47.350;8.718;2023-04-06T02:41:08;5.35;52.02
69324;DHT22;56470;47.350;8.718;2023-04-06T02:43:34;5.30;52.30
69324;DHT22;56470;47.350;8.718;2023-04-06T02:46:00;5.28;52.49
69324;DHT22;56470;47.350;8.718;2023-04-06T02:48:25;5.31;52.48
69324;DHT22;56470;47.350;8.718;2023-04-06T02:50:50;5.32;52.18
69324;DHT22;56470;47.350;8.718;2023-04-06T02:53:16;5.25;52.10
69324;DHT22;56470;47.350;8.718;2023-04-06T02:55:41;5.25;52.31
69324;DHT22;56470;47.350;8.718;2023-04-06T02:58:06;5.20;52.54
69324;DHT22;56470;47.350;8.718;2023-04-06T03:00:32;5.17;52.65
69324;DHT22;56470;47.350;8.718;2023-04-06T03:02:57;5.17;52.57
69324;DHT22;56470;47.350;8.718;2023-04-06T03:05:22;5.13;52.79
69324;DHT22;56470;47.350;8.718;2023-04-06T03:07:48;5.10;52.84
69324;DHT22;56470;47.350;8.718;2023-04-06T03:10:13;5.15;52.96
69324;DHT22;56470;47.350;8.718;2023-04-06T03:12:38;5.15;52.87
69324;DHT22;56470;47.350;8.718;2023-04-06T03:15:04;5.17;52.98
69324;DHT22;56470;47.350;8.718;2023-04-06T03:17:30;5.14;53.05
69324;DHT22;56470;47.350;8.718;2023-04-06T03:19:55;5.11;53.05
69324;DHT22;56470;47.350;8.718;2023-04-06T03:22:20;5.11;53.11
69324;DHT22;56470;47.350;8.718;2023-04-06T03:24:46;5.04;53.25
69324;DHT22;56470;47.350;8.718;2023-04-06T03:27:11;5.04;53.32
69324;DHT22;56470;47.350;8.718;2023-04-06T03:29:37;5.03;53.32
69324;DHT22;56470;47.350;8.718;2023-04-06T03:32:02;5.01;53.20
69324;DHT22;56470;47.350;8.718;2023-04-06T03:34:28;4.97;53.21
69324;DHT22;56470;47.350;8.718;2023-04-06T03:36:53;4.96;53.28
69324;DHT22;56470;47.350;8.718;2023-04-06T03:39:19;4.91;53.07
69324;DHT22;56470;47.350;8.718;2023-04-06T03:41:44;4.87;53.08
69324;DHT22;56470;47.350;8.718;2023-04-06T03:44:10;4.80;53.25
69324;DHT22;56470;47.350;8.718;2023-04-06T03:46:35;4.79;53.46
69324;DHT22;56470;47.350;8.718;2023-04-06T03:49:00;4.79;53.50
69324;DHT22;56470;47.350;8.718;2023-04-06T03:51:27;4.73;53.11
69324;DHT22;56470;47.350;8.718;2023-04-06T03:53:52;4.70;53.41
69324;DHT22;56470;47.350;8.718;2023-04-06T03:56:18;4.68;53.48
69324;DHT22;56470;47.350;8.718;2023-04-06T03:58:43;4.65;53.76
69324;DHT22;56470;47.350;8.718;2023-04-06T04:01:10;4.61;53.84
69324;DHT22;56470;47.350;8.718;2023-04-06T04:03:35;4.65;53.89
69324;DHT22;56470;47.350;8.718;2023-04-06T04:06:01;4.63;53.90
69324;DHT22;56470;47.350;8.718;2023-04-06T04:08:26;4.65;53.84
69324;DHT22;56470;47.350;8.718;2023-04-06T04:10:51;4.65;53.79
69324;DHT22;56470;47.350;8.718;2023-04-06T04:13:17;4.58;53.63
69324;DHT22;56470;47.350;8.718;2023-04-06T04:15:42;4.52;53.89
69324;DHT22;56470;47.350;8.718;2023-04-06T04:18:07;4.53;53.93
69324;DHT22;56470;47.350;8.718;2023-04-06T04:20:33;4.49;54.29
69324;DHT22;56470;47.350;8.718;2023-04-06T04:22:59;4.53;53.82
69324;DHT22;56470;47.350;8.718;2023-04-06T04:25:24;4.52;53.84
69324;DHT22;56470;47.350;8.718;2023-04-06T04:27:50;4.49;53.99
69324;DHT22;56470;47.350;8.718;2023-04-06T04:30:16;4.52;53.85
69324;DHT22;56470;47.350;8.718;2023-04-06T04:32:41;4.51;54.03
69324;DHT22;56470;47.350;8.718;2023-04-06T04:35:07;4.53;54.35
69324;DHT22;56470;47.350;8.718;2023-04-06T04:37:35;4.58;54.02
69324;DHT22;56470;47.350;8.718;2023-04-06T04:40:01;4.63;54.10
69324;DHT22;56470;47.350;8.718;2023-04-06T04:42:26;4.63;54.19
69324;DHT22;56470;47.350;8.718;2023-04-06T04:44:51;4.63;54.31
69324;DHT22;56470;47.350;8.718;2023-04-06T04:47:17;4.61;54.32
69324;DHT22;56470;47.350;8.718;2023-04-06T04:49:42;4.61;54.48
69324;DHT22;56470;47.350;8.718;2023-04-06T04:52:08;4.63;54.53
69324;DHT22;56470;47.350;8.718;2023-04-06T04:54:33;4.63;54.61
69324;DHT22;56470;47.350;8.718;2023-04-06T04:56:58;4.61;54.61
69324;DHT22;56470;47.350;8.718;2023-04-06T04:59:24;4.61;54.56
69324;DHT22;56470;47.350;8.718;2023-04-06T05:01:49;4.59;54.71
69324;DHT22;56470;47.350;8.718;2023-04-06T05:04:14;4.56;54.72
69324;DHT22;56470;47.350;8.718;2023-04-06T05:06:40;4.56;54.92
69324;DHT22;56470;47.350;8.718;2023-04-06T05:09:05;4.59;55.05
69324;DHT22;56470;47.350;8.718;2023-04-06T05:11:30;4.61;55.06
69324;DHT22;56470;47.350;8.718;2023-04-06T05:13:56;4.59;54.87
69324;DHT22;56470;47.350;8.718;2023-04-06T05:16:21;4.58;55.14
69324;DHT22;56470;47.350;8.718;2023-04-06T05:18:47;4.59;54.94
69324;DHT22;56470;47.350;8.718;2023-04-06T05:21:13;4.58;55.05
69324;DHT22;56470;47.350;8.718;2023-04-06T05:23:38;4.55;55.15
69324;DHT22;56470;47.350;8.718;2023-04-06T05:26:04;4.55;55.26
69324;DHT22;56470;47.350;8.718;2023-04-06T05:28:29;4.58;55.10
69324;DHT22;56470;47.350;8.718;2023-04-06T05:30:55;4.56;55.40
69324;DHT22;56470;47.350;8.718;2023-04-06T05:33:22;4.63;54.93
69324;DHT22;56470;47.350;8.718;2023-04-06T05:35:47;4.65;55.05
69324;DHT22;56470;47.350;8.718;2023-04-06T05:38:12;4.70;55.00
69324;DHT22;56470;47.350;8.718;2023-04-06T05:40:38;4.70;54.98
69324;DHT22;56470;47.350;8.718;2023-04-06T05:43:06;4.72;54.91
69324;DHT22;56470;47.350;8.718;2023-04-06T05:45:31;4.79;54.99
69324;DHT22;56470;47.350;8.718;2023-04-06T05:47:56;4.81;54.99
69324;DHT22;56470;47.350;8.718;2023-04-06T05:50:22;4.87;55.05
69324;DHT22;56470;47.350;8.718;2023-04-06T05:52:47;4.94;54.94
69324;DHT22;56470;47.350;8.718;2023-04-06T05:55:13;4.98;54.84
69324;DHT22;56470;47.350;8.718;2023-04-06T05:57:38;5.01;54.77
69324;DHT22;56470;47.350;8.718;2023-04-06T06:00:05;5.06;54.73
69324;DHT22;56470;47.350;8.718;2023-04-06T06:02:31;5.13;54.26
69324;DHT22;56470;47.350;8.718;2023-04-06T06:04:57;5.14;54.57
69324;DHT22;56470;47.350;8.718;2023-04-06T06:07:23;5.21;54.79
69324;DHT22;56470;47.350;8.718;2023-04-06T06:09:49;5.41;54.76
69324;DHT22;56470;47.350;8.718;2023-04-06T06:12:14;5.58;54.40
69324;DHT22;56470;47.350;8.718;2023-04-06T06:14:40;5.76;54.26
69324;DHT22;56470;47.350;8.718;2023-04-06T06:17:05;5.91;54.25
69324;DHT22;56470;47.350;8.718;2023-04-06T06:19:31;6.10;54.16
69324;DHT22;56470;47.350;8.718;2023-04-06T06:21:56;6.29;53.94
69324;DHT22;56470;47.350;8.718;2023-04-06T06:24:21;6.50;53.84
69324;DHT22;56470;47.350;8.718;2023-04-06T06:26:47;6.69;53.61
69324;DHT22;56470;47.350;8.718;2023-04-06T06:29:14;6.88;53.30
69324;DHT22;56470;47.350;8.718;2023-04-06T06:31:39;7.05;53.39
69324;DHT22;56470;47.350;8.718;2023-04-06T06:34:05;7.19;53.22
69324;DHT22;56470;47.350;8.718;2023-04-06T06:36:31;7.39;52.95
69324;DHT22;56470;47.350;8.718;2023-04-06T06:38:57;7.53;52.60
69324;DHT22;56470;47.350;8.718;2023-04-06T06:41:24;7.73;52.42
69324;DHT22;56470;47.350;8.718;2023-04-06T06:43:50;7.91;52.18
69324;DHT22;56470;47.350;8.718;2023-04-06T06:46:15;8.05;51.96
69324;DHT22;56470;47.350;8.718;2023-04-06T06:48:40;8.21;51.79
69324;DHT22;56470;47.350;8.718;2023-04-06T06:51:06;8.39;51.49
69324;DHT22;56470;47.350;8.718;2023-04-06T06:53:31;8.56;51.23
69324;DHT22;56470;47.350;8.718;2023-04-06T06:55:57;8.70;50.96
69324;DHT22;56470;47.350;8.718;2023-04-06T06:58:22;8.85;50.68
69324;DHT22;56470;47.350;8.718;2023-04-06T07:00:47;9.00;50.34
69324;DHT22;56470;47.350;8.718;2023-04-06T07:03:16;9.19;50.27
69324;DHT22;56470;47.350;8.718;2023-04-06T07:05:51;9.33;49.79
69324;DHT22;56470;47.350;8.718;2023-04-06T07:08:25;9.46;49.60
69324;DHT22;56470;47.350;8.718;2023-04-06T07:10:51;9.54;49.43
69324;DHT22;56470;47.350;8.718;2023-04-06T07:13:23;9.61;49.08
69324;DHT22;56470;47.350;8.718;2023-04-06T07:15:49;9.73;49.02
69324;DHT22;56470;47.350;8.718;2023-04-06T07:18:18;9.83;48.84
69324;DHT22;56470;47.350;8.718;2023-04-06T07:20:46;9.99;48.72
69324;DHT22;56470;47.350;8.718;2023-04-06T07:23:12;10.15;48.34
69324;DHT22;56470;47.350;8.718;2023-04-06T07:25:37;10.29;47.96
69324;DHT22;56470;47.350;8.718;2023-04-06T07:28:03;10.45;47.76
69324;DHT22;56470;47.350;8.718;2023-04-06T07:30:29;10.59;47.36
69324;DHT22;56470;47.350;8.718;2023-04-06T07:32:55;10.71;47.08
69324;DHT22;56470;47.350;8.718;2023-04-06T07:35:25;10.85;46.97
69324;DHT22;56470;47.350;8.718;2023-04-06T07:37:51;10.95;46.49
69324;DHT22;56470;47.350;8.718;2023-04-06T07:40:17;11.11;46.35
69324;DHT22;56470;47.350;8.718;2023-04-06T07:42:45;11.27;46.15
69324;DHT22;56470;47.350;8.718;2023-04-06T07:45:11;11.50;45.88
69324;DHT22;56470;47.350;8.718;2023-04-06T07:47:36;11.70;45.15
69324;DHT22;56470;47.350;8.718;2023-04-06T07:50:02;11.74;44.70
69324;DHT22;56470;47.350;8.718;2023-04-06T07:52:27;11.82;44.58
69324;DHT22;56470;47.350;8.718;2023-04-06T07:54:53;11.98;43.96
69324;DHT22;56470;47.350;8.718;2023-04-06T07:57:18;11.99;43.96
69324;DHT22;56470;47.350;8.718;2023-04-06T07:59:44;12.09;43.88
69324;DHT22;56470;47.350;8.718;2023-04-06T08:02:09;12.11;43.69
69324;DHT22;56470;47.350;8.718;2023-04-06T08:04:35;12.09;42.84
69324;DHT22;56470;47.350;8.718;2023-04-06T08:07:01;12.05;43.09
69324;DHT22;56470;47.350;8.718;2023-04-06T08:09:26;12.11;42.91
69324;DHT22;56470;47.350;8.718;2023-04-06T08:11:52;12.25;43.00
69324;DHT22;56470;47.350;8.718;2023-04-06T08:14:17;12.39;42.45
69324;DHT22;56470;47.350;8.718;2023-04-06T08:16:43;12.46;42.13
69324;DHT22;56470;47.350;8.718;2023-04-06T08:19:11;12.54;42.19
69324;DHT22;56470;47.350;8.718;2023-04-06T08:21:36;12.59;41.79
69324;DHT22;56470;47.350;8.718;2023-04-06T08:24:02;12.59;41.39
69324;DHT22;56470;47.350;8.718;2023-04-06T08:26:31;12.54;41.18
69324;DHT22;56470;47.350;8.718;2023-04-06T08:28:56;12.56;41.09
69324;DHT22;56470;47.350;8.718;2023-04-06T08:31:21;12.67;41.37
69324;DHT22;56470;47.350;8.718;2023-04-06T08:33:47;12.83;41.23
69324;DHT22;56470;47.350;8.718;2023-04-06T08:36:13;12.98;40.61
69324;DHT22;56470;47.350;8.718;2023-04-06T08:38:40;13.06;40.85
69324;DHT22;56470;47.350;8.718;2023-04-06T08:41:08;13.11;40.07
69324;DHT22;56470;47.350;8.718;2023-04-06T08:43:38;13.15;40.49
69324;DHT22;56470;47.350;8.718;2023-04-06T08:46:08;13.35;40.40
69324;DHT22;56470;47.350;8.718;2023-04-06T08:48:34;13.42;39.32
69324;DHT22;56470;47.350;8.718;2023-04-06T08:51:02;13.39;39.92
69324;DHT22;56470;47.350;8.718;2023-04-06T08:53:27;13.43;39.59
69324;DHT22;56470;47.350;8.718;2023-04-06T08:55:54;13.42;39.75
69324;DHT22;56470;47.350;8.718;2023-04-06T08:58:20;13.44;39.67
69324;DHT22;56470;47.350;8.718;2023-04-06T09:00:46;13.50;39.25
69324;DHT22;56470;47.350;8.718;2023-04-06T09:03:12;13.42;39.07
69324;DHT22;56470;47.350;8.718;2023-04-06T09:05:38;13.46;39.75
69324;DHT22;56470;47.350;8.718;2023-04-06T09:08:04;13.67;38.75
69324;DHT22;56470;47.350;8.718;2023-04-06T09:10:29;13.63;39.08
69324;DHT22;56470;47.350;8.718;2023-04-06T09:13:08;13.73;38.36
69324;DHT22;56470;47.350;8.718;2023-04-06T09:15:34;13.89;38.67
69324;DHT22;56470;47.350;8.718;2023-04-06T09:18:00;14.04;38.92
69324;DHT22;56470;47.350;8.718;2023-04-06T09:20:26;14.16;38.24
69324;DHT22;56470;47.350;8.718;2023-04-06T09:22:54;14.21;38.01
69324;DHT22;56470;47.350;8.718;2023-04-06T09:25:21;14.19;37.72
69324;DHT22;56470;47.350;8.718;2023-04-06T09:27:48;14.30;38.12
69324;DHT22;56470;47.350;8.718;2023-04-06T09:30:15;14.37;37.56
69324;DHT22;56470;47.350;8.718;2023-04-06T09:32:52;14.34;36.77
69324;DHT22;56470;47.350;8.718;2023-04-06T09:35:18;14.41;37.67
69324;DHT22;56470;47.350;8.718;2023-04-06T09:37:46;14.41;37.47
69324;DHT22;56470;47.350;8.718;2023-04-06T09:40:13;14.32;37.08
69324;DHT22;56470;47.350;8.718;2023-04-06T09:42:42;14.33;37.47
69324;DHT22;56470;47.350;8.718;2023-04-06T09:45:08;14.36;37.34
69324;DHT22;56470;47.350;8.718;2023-04-06T09:47:36;14.51;37.35
69324;DHT22;56470;47.350;8.718;2023-04-06T09:50:02;14.66;37.18
69324;DHT22;56470;47.350;8.718;2023-04-06T09:52:41;14.80;36.25
69324;DHT22;56470;47.350;8.718;2023-04-06T09:55:08;14.85;36.53
69324;DHT22;56470;47.350;8.718;2023-04-06T10:00:05;14.89;36.08
69324;DHT22;56470;47.350;8.718;2023-04-06T10:05:15;14.80;35.75
69324;DHT22;56470;47.350;8.718;2023-04-06T10:07:42;14.81;35.74
69324;DHT22;56470;47.350;8.718;2023-04-06T10:10:09;14.80;36.09
69324;DHT22;56470;47.350;8.718;2023-04-06T10:12:38;14.80;35.87
69324;DHT22;56470;47.350;8.718;2023-04-06T10:15:04;14.81;35.25
69324;DHT22;56470;47.350;8.718;2023-04-06T10:17:30;14.73;35.69
69324;DHT22;56470;47.350;8.718;2023-04-06T10:20:20;14.81;34.12
69324;DHT22;56470;47.350;8.718;2023-04-06T10:25:32;14.91;34.74
69324;DHT22;56470;47.350;8.718;2023-04-06T10:28:11;14.95;34.56
69324;DHT22;56470;47.350;8.718;2023-04-06T10:30:44;14.81;34.77
69324;DHT22;56470;47.350;8.718;2023-04-06T10:33:14;14.85;34.98
69324;DHT22;56470;47.350;8.718;2023-04-06T10:35:40;14.87;34.83
69324;DHT22;56470;47.350;8.718;2023-04-06T10:38:06;14.83;34.90
69324;DHT22;56470;47.350;8.718;2023-04-06T10:40:35;14.74;34.41
69324;DHT22;56470;47.350;8.718;2023-04-06T10:43:09;14.74;34.57
69324;DHT22;56470;47.350;8.718;2023-04-06T10:45:35;14.84;35.03
69324;DHT22;56470;47.350;8.718;2023-04-06T10:48:01;14.89;34.76
69324;DHT22;56470;47.350;8.718;2023-04-06T10:50:37;14.91;34.75
69324;DHT22;56470;47.350;8.718;2023-04-06T10:53:05;15.02;34.55
69324;DHT22;56470;47.350;8.718;2023-04-06T10:55:31;15.03;34.23
69324;DHT22;56470;47.350;8.718;2023-04-06T10:57:57;15.02;34.10
69324;DHT22;56470;47.350;8.718;2023-04-06T11:00:23;15.06;33.92
69324;DHT22;56470;47.350;8.718;2023-04-06T11:02:48;15.09;33.94
69324;DHT22;56470;47.350;8.718;2023-04-06T11:05:14;15.15;33.89
69324;DHT22;56470;47.350;8.718;2023-04-06T11:07:40;15.19;33.79
69324;DHT22;56470;47.350;8.718;2023-04-06T11:10:07;15.15;33.62
69324;DHT22;56470;47.350;8.718;2023-04-06T11:12:32;15.02;33.62
69324;DHT22;56470;47.350;8.718;2023-04-06T11:14:59;14.91;33.37
69324;DHT22;56470;47.350;8.718;2023-04-06T11:17:33;14.89;33.55
69324;DHT22;56470;47.350;8.718;2023-04-06T11:19:59;14.95;33.37
69324;DHT22;56470;47.350;8.718;2023-04-06T11:22:25;14.99;33.19
69324;DHT22;56470;47.350;8.718;2023-04-06T11:24:51;14.94;33.23
69324;DHT22;56470;47.350;8.718;2023-04-06T11:27:17;14.78;33.41
69324;DHT22;56470;47.350;8.718;2023-04-06T11:29:43;14.67;33.54
69324;DHT22;56470;47.350;8.718;2023-04-06T11:32:09;14.74;33.66
69324;DHT22;56470;47.350;8.718;2023-04-06T11:34:38;14.77;33.27
69324;DHT22;56470;47.350;8.718;2023-04-06T11:37:09;14.80;33.26
69324;DHT22;56470;47.350;8.718;2023-04-06T11:39:54;14.83;31.11
69324;DHT22;56470;47.350;8.718;2023-04-06T11:42:27;14.88;32.94
69324;DHT22;56470;47.350;8.718;2023-04-06T11:44:56;14.89;32.82
69324;DHT22;56470;47.350;8.718;2023-04-06T11:47:29;14.75;32.11
69324;DHT22;56470;47.350;8.718;2023-04-06T11:49:56;14.74;32.88
69324;DHT22;56470;47.350;8.718;2023-04-06T11:52:25;14.77;32.79
69324;DHT22;56470;47.350;8.718;2023-04-06T11:54:52;14.70;32.85
69324;DHT22;56470;47.350;8.718;2023-04-06T11:57:20;14.71;32.87
69324;DHT22;56470;47.350;8.718;2023-04-06T11:59:46;14.71;32.32
69324;DHT22;56470;47.350;8.718;2023-04-06T12:02:12;14.57;32.73
69324;DHT22;56470;47.350;8.718;2023-04-06T12:04:37;14.53;32.60
69324;DHT22;56470;47.350;8.718;2023-04-06T12:07:03;14.55;32.60
69324;DHT22;56470;47.350;8.718;2023-04-06T12:09:29;14.53;32.62
69324;DHT22;56470;47.350;8.718;2023-04-06T12:11:55;14.51;32.45
69324;DHT22;56470;47.350;8.718;2023-04-06T12:14:21;14.43;32.53
69324;DHT22;56470;47.350;8.718;2023-04-06T12:16:46;14.37;32.56
69324;DHT22;56470;47.350;8.718;2023-04-06T12:19:12;14.37;32.83
69324;DHT22;56470;47.350;8.718;2023-04-06T12:21:37;14.39;32.55
69324;DHT22;56470;47.350;8.718;2023-04-06T12:24:03;14.39;32.66
69324;DHT22;56470;47.350;8.718;2023-04-06T12:26:30;14.34;32.67
69324;DHT22;56470;47.350;8.718;2023-04-06T12:28:55;14.30;32.74
69324;DHT22;56470;47.350;8.718;2023-04-06T12:31:22;14.26;32.80
69324;DHT22;56470;47.350;8.718;2023-04-06T12:33:49;14.29;32.90
69324;DHT22;56470;47.350;8.718;2023-04-06T12:36:16;14.28;32.73
69324;DHT22;56470;47.350;8.718;2023-04-06T12:38:46;14.21;32.94
69324;DHT22;56470;47.350;8.718;2023-04-06T12:41:12;14.21;32.85
69324;DHT22;56470;47.350;8.718;2023-04-06T12:43:39;14.15;32.82
69324;DHT22;56470;47.350;8.718;2023-04-06T12:46:05;14.13;32.70
69324;DHT22;56470;47.350;8.718;2023-04-06T12:48:30;14.06;32.83
69324;DHT22;56470;47.350;8.718;2023-04-06T12:50:58;14.06;32.87
69324;DHT22;56470;47.350;8.718;2023-04-06T12:53:24;14.11;33.02
69324;DHT22;56470;47.350;8.718;2023-04-06T12:55:50;14.13;32.83
69324;DHT22;56470;47.350;8.718;2023-04-06T12:58:16;14.19;32.87
69324;DHT22;56470;47.350;8.718;2023-04-06T13:00:42;14.25;32.64
69324;DHT22;56470;47.350;8.718;2023-04-06T13:03:07;14.25;32.49
69324;DHT22;56470;47.350;8.718;2023-04-06T13:05:33;14.30;32.53
69324;DHT22;56470;47.350;8.718;2023-04-06T13:07:58;14.28;32.32
69324;DHT22;56470;47.350;8.718;2023-04-06T13:10:23;14.29;32.42
69324;DHT22;56470;47.350;8.718;2023-04-06T13:12:49;14.28;32.38
69324;DHT22;56470;47.350;8.718;2023-04-06T13:15:14;14.22;32.13
69324;DHT22;56470;47.350;8.718;2023-04-06T13:17:40;14.21;32.36
69324;DHT22;56470;47.350;8.718;2023-04-06T13:20:06;14.23;32.18
69324;DHT22;56470;47.350;8.718;2023-04-06T13:22:31;14.23;32.32
69324;DHT22;56470;47.350;8.718;2023-04-06T13:24:57;14.25;32.08
69324;DHT22;56470;47.350;8.718;2023-04-06T13:27:22;14.25;32.10
69324;DHT22;56470;47.350;8.718;2023-04-06T13:29:47;14.28;31.80
69324;DHT22;56470;47.350;8.718;2023-04-06T13:32:13;14.29;31.94
69324;DHT22;56470;47.350;8.718;2023-04-06T13:34:39;14.30;31.81
69324;DHT22;56470;47.350;8.718;2023-04-06T13:37:05;14.30;31.74
69324;DHT22;56470;47.350;8.718;2023-04-06T13:39:31;14.36;31.57
69324;DHT22;56470;47.350;8.718;2023-04-06T13:41:56;14.37;31.53
69324;DHT22;56470;47.350;8.718;2023-04-06T13:44:22;14.34;31.37
69324;DHT22;56470;47.350;8.718;2023-04-06T13:46:47;14.33;31.45
69324;DHT22;56470;47.350;8.718;2023-04-06T13:49:13;14.33;31.43
69324;DHT22;56470;47.350;8.718;2023-04-06T13:51:39;14.40;31.40
69324;DHT22;56470;47.350;8.718;2023-04-06T13:54:04;14.41;31.23
69324;DHT22;56470;47.350;8.718;2023-04-06T13:56:30;14.43;30.81
69324;DHT22;56470;47.350;8.718;2023-04-06T13:58:56;14.43;30.98
69324;DHT22;56470;47.350;8.718;2023-04-06T14:01:21;14.47;31.17
69324;DHT22;56470;47.350;8.718;2023-04-06T14:03:50;14.46;30.99
69324;DHT22;56470;47.350;8.718;2023-04-06T14:06:15;14.47;30.90
69324;DHT22;56470;47.350;8.718;2023-04-06T14:08:40;14.47;30.64
69324;DHT22;56470;47.350;8.718;2023-04-06T14:11:10;14.44;30.72
69324;DHT22;56470;47.350;8.718;2023-04-06T14:13:37;14.49;30.79
69324;DHT22;56470;47.350;8.718;2023-04-06T14:16:02;14.55;30.59
69324;DHT22;56470;47.350;8.718;2023-04-06T14:18:28;14.59;30.00
69324;DHT22;56470;47.350;8.718;2023-04-06T14:20:57;14.53;30.04
69324;DHT22;56470;47.350;8.718;2023-04-06T14:23:23;14.49;29.76
69324;DHT22;56470;47.350;8.718;2023-04-06T14:25:51;14.44;29.72
69324;DHT22;56470;47.350;8.718;2023-04-06T14:28:16;14.41;29.68
69324;DHT22;56470;47.350;8.718;2023-04-06T14:30:42;14.33;29.69
69324;DHT22;56470;47.350;8.718;2023-04-06T14:33:07;14.28;29.86
69324;DHT22;56470;47.350;8.718;2023-04-06T14:35:33;14.28;29.99
69324;DHT22;56470;47.350;8.718;2023-04-06T14:37:58;14.28;30.30
69324;DHT22;56470;47.350;8.718;2023-04-06T14:40:24;14.28;30.17
69324;DHT22;56470;47.350;8.718;2023-04-06T14:42:50;14.25;30.31
69324;DHT22;56470;47.350;8.718;2023-04-06T14:45:17;14.22;30.27
69324;DHT22;56470;47.350;8.718;2023-04-06T14:47:44;14.21;30.43
69324;DHT22;56470;47.350;8.718;2023-04-06T14:50:09;14.22;30.47
69324;DHT22;56470;47.350;8.718;2023-04-06T14:52:35;14.19;30.24
69324;DHT22;56470;47.350;8.718;2023-04-06T14:55:01;14.13;30.05
69324;DHT22;56470;47.350;8.718;2023-04-06T14:57:26;14.11;30.61
69324;DHT22;56470;47.350;8.718;2023-04-06T14:59:54;14.06;30.60
69324;DHT22;56470;47.350;8.718;2023-04-06T15:02:20;14.02;30.42
69324;DHT22;56470;47.350;8.718;2023-04-06T15:04:45;14.01;30.42
69324;DHT22;56470;47.350;8.718;2023-04-06T15:07:11;13.98;30.45
69324;DHT22;56470;47.350;8.718;2023-04-06T15:09:36;13.94;30.66
69324;DHT22;56470;47.350;8.718;2023-04-06T15:12:01;13.89;30.81
69324;DHT22;56470;47.350;8.718;2023-04-06T15:14:27;13.91;31.18
69324;DHT22;56470;47.350;8.718;2023-04-06T15:16:52;13.92;31.31
69324;DHT22;56470;47.350;8.718;2023-04-06T15:19:18;13.97;31.46
69324;DHT22;56470;47.350;8.718;2023-04-06T15:21:43;14.00;31.54
69324;DHT22;56470;47.350;8.718;2023-04-06T15:24:08;14.00;31.36
69324;DHT22;56470;47.350;8.718;2023-04-06T15:26:35;14.00;31.48
69324;DHT22;56470;47.350;8.718;2023-04-06T15:29:01;14.01;31.72
69324;DHT22;56470;47.350;8.718;2023-04-06T15:31:27;13.98;31.85
69324;DHT22;56470;47.350;8.718;2023-04-06T15:33:54;13.95;31.99
69324;DHT22;56470;47.350;8.718;2023-04-06T15:36:25;13.91;31.97
69324;DHT22;56470;47.350;8.718;2023-04-06T15:38:51;13.89;32.04